Time;durP1;ratioP1;P1;durP2;ratioP2;P2;SDS_P1;SDS_P2;PMS_P1;PMS_P2;Temp;Humidity;BMP_temperature;BMP_pressure;BME280_temperature;BME280_humidity;BME280_pressure;Samples;Min_cycle;Max_cycle;Signal;HPM_P1;HPM_P2
2021/10/03 00:01:46;;;;;;;8.00;4.68;;;;;;;;;;5025750;28;20409;-67
2021/10/03 00:04:13;;;;;;;8.05;5.15;;;;;;;;;;5025847;28;20057;-69
2021/10/03 00:06:39;;;;;;;8.55;4.63;;;;;;;;;;5041050;28;20481;-68
2021/10/03 00:09:05;;;;;;;6.97;4.95;;;;;;;;;;5026112;28;20018;-68
2021/10/03 00:11:31;;;;;;;5.25;4.65;;;;;;;;;;5026630;28;20123;-68
2021/10/03 00:13:57;;;;;;;6.10;4.63;;;;;;;;;;5026171;28;20111;-69
2021/10/03 00:16:23;;;;;;;7.32;4.93;;;;;;;;;;5026708;28;20038;-68
2021/10/03 00:18:51;;;;;;;5.75;4.88;;;;;;;;;;5029475;28;20087;-68
2021/10/03 00:21:17;;;;;;;5.07;4.00;;;;;;;;;;5029703;28;20048;-68
2021/10/03 00:23:43;;;;;;;6.90;5.35;;;;;;;;;;5029517;28;20052;-67
2021/10/03 00:26:09;;;;;;;7.75;4.78;;;;;;;;;;5028727;28;20029;-67
2021/10/03 00:28:36;;;;;;;6.63;5.15;;;;;;;;;;5030291;28;20028;-66
2021/10/03 00:31:02;;;;;;;6.75;4.75;;;;;;;;;;5029190;28;20021;-67
2021/10/03 00:33:28;;;;;;;6.70;5.25;;;;;;;;;;5028705;28;20029;-68
2021/10/03 00:35:54;;;;;;;6.75;4.95;;;;;;;;;;5029513;28;20034;-70
2021/10/03 00:38:20;;;;;;;6.93;4.82;;;;;;;;;;5029405;28;20038;-66
2021/10/03 00:40:46;;;;;;;6.65;4.90;;;;;;;;;;5029117;28;20029;-69
2021/10/03 00:43:13;;;;;;;5.15;4.30;;;;;;;;;;5029213;28;20501;-67
2021/10/03 00:45:39;;;;;;;5.97;4.85;;;;;;;;;;5029424;28;20078;-67
2021/10/03 00:48:06;;;;;;;5.22;4.20;;;;;;;;;;5029336;28;20025;-67
2021/10/03 00:50:34;;;;;;;8.30;4.65;;;;;;;;;;5028658;28;20064;-68
2021/10/03 00:53:00;;;;;;;7.15;5.07;;;;;;;;;;5029042;28;20025;-69
2021/10/03 00:55:27;;;;;;;7.55;5.18;;;;;;;;;;5028967;28;20365;-68
2021/10/03 00:57:53;;;;;;;5.25;4.75;;;;;;;;;;5028952;28;20463;-67
2021/10/03 01:00:24;;;;;;;5.00;4.47;;;;;;;;;;5028702;28;20496;-67
2021/10/03 01:02:50;;;;;;;6.15;4.57;;;;;;;;;;5028118;28;20033;-68
2021/10/03 01:05:17;;;;;;;5.50;4.53;;;;;;;;;;5028895;28;20079;-67
2021/10/03 01:07:43;;;;;;;5.43;4.53;;;;;;;;;;5028319;28;20055;-66
2021/10/03 01:10:11;;;;;;;6.07;4.10;;;;;;;;;;5029279;28;20083;-67
2021/10/03 01:12:37;;;;;;;5.28;4.28;;;;;;;;;;5029119;28;20112;-68
2021/10/03 01:15:04;;;;;;;4.40;3.90;;;;;;;;;;5028741;28;20029;-67
2021/10/03 01:17:30;;;;;;;5.75;4.13;;;;;;;;;;5030913;28;20025;-66
2021/10/03 01:19:57;;;;;;;5.22;4.50;;;;;;;;;;5047917;28;20108;-67
2021/10/03 01:22:23;;;;;;;5.03;4.20;;;;;;;;;;5047631;28;20021;-67
2021/10/03 01:24:49;;;;;;;5.10;4.43;;;;;;;;;;5048313;28;20599;-69
2021/10/03 01:27:15;;;;;;;5.45;4.25;;;;;;;;;;5048435;28;20025;-67
2021/10/03 01:29:42;;;;;;;5.55;4.25;;;;;;;;;;5047186;28;20473;-67
2021/10/03 01:32:09;;;;;;;6.60;4.38;;;;;;;;;;5039553;28;20025;-66
2021/10/03 01:34:35;;;;;;;5.07;4.57;;;;;;;;;;5028449;28;20091;-67
2021/10/03 01:37:02;;;;;;;6.20;5.28;;;;;;;;;;5028162;28;20036;-68
2021/10/03 01:39:28;;;;;;;8.43;5.07;;;;;;;;;;5027871;28;20025;-67
2021/10/03 01:41:54;;;;;;;6.63;4.40;;;;;;;;;;5028115;28;20068;-68
2021/10/03 01:44:20;;;;;;;5.57;4.47;;;;;;;;;;5028631;28;20029;-67
2021/10/03 01:46:46;;;;;;;5.72;3.80;;;;;;;;;;5027732;28;20053;-67
2021/10/03 01:49:12;;;;;;;5.40;4.18;;;;;;;;;;5027610;28;20604;-67
2021/10/03 01:51:39;;;;;;;6.32;4.93;;;;;;;;;;5028249;28;20397;-67
2021/10/03 01:54:05;;;;;;;6.10;4.40;;;;;;;;;;5028191;28;20034;-68
2021/10/03 01:56:32;;;;;;;4.80;4.28;;;;;;;;;;5027426;28;20037;-68
2021/10/03 01:59:00;;;;;;;5.65;4.78;;;;;;;;;;5027883;28;20082;-68
2021/10/03 02:01:31;;;;;;;8.25;5.32;;;;;;;;;;5027396;28;20040;-68
2021/10/03 02:03:58;;;;;;;6.50;4.47;;;;;;;;;;5026752;28;20044;-67
2021/10/03 02:06:25;;;;;;;5.53;4.38;;;;;;;;;;5027590;28;20046;-67
2021/10/03 02:08:52;;;;;;;5.40;4.53;;;;;;;;;;5027287;28;20085;-67
2021/10/03 02:11:18;;;;;;;6.18;4.10;;;;;;;;;;5036230;28;20397;-68
2021/10/03 02:13:45;;;;;;;5.68;4.60;;;;;;;;;;5047147;28;20068;-67
2021/10/03 02:16:11;;;;;;;6.10;4.47;;;;;;;;;;5062531;28;20025;-67
2021/10/03 02:18:39;;;;;;;6.18;4.47;;;;;;;;;;5047364;28;20392;-67
2021/10/03 02:21:06;;;;;;;5.78;4.57;;;;;;;;;;5047848;28;20021;-67
2021/10/03 02:23:32;;;;;;;6.47;4.45;;;;;;;;;;5044824;28;20033;-69
2021/10/03 02:25:58;;;;;;;6.07;4.88;;;;;;;;;;5047377;28;20032;-69
2021/10/03 02:28:25;;;;;;;5.47;4.35;;;;;;;;;;5032949;28;20401;-67
2021/10/03 02:30:53;;;;;;;7.50;4.47;;;;;;;;;;5027814;28;20105;-71
2021/10/03 02:33:20;;;;;;;5.72;4.20;;;;;;;;;;5027633;28;20033;-68
2021/10/03 02:35:46;;;;;;;4.80;3.83;;;;;;;;;;5026849;28;20447;-69
2021/10/03 02:38:14;;;;;;;4.47;3.70;;;;;;;;;;5034148;28;20459;-68
2021/10/03 02:40:40;;;;;;;5.40;4.13;;;;;;;;;;5046108;28;20032;-70
2021/10/03 02:43:08;;;;;;;5.78;4.05;;;;;;;;;;5046945;28;20025;-67
2021/10/03 02:45:35;;;;;;;6.25;4.20;;;;;;;;;;5039014;28;20029;-67
2021/10/03 02:48:02;;;;;;;5.55;3.88;;;;;;;;;;5026767;28;20029;-68
2021/10/03 02:50:28;;;;;;;7.03;4.38;;;;;;;;;;5027527;28;20035;-67
2021/10/03 02:52:54;;;;;;;5.22;3.95;;;;;;;;;;5026842;28;20026;-67
2021/10/03 02:55:20;;;;;;;7.75;4.40;;;;;;;;;;5042865;28;20045;-68
2021/10/03 02:57:46;;;;;;;4.88;3.67;;;;;;;;;;5026843;28;20037;-68
2021/10/03 03:00:13;;;;;;;4.90;3.75;;;;;;;;;;5027041;28;20976;-69
2021/10/03 03:02:39;;;;;;;5.78;3.92;;;;;;;;;;5025281;28;20147;-68
2021/10/03 03:05:08;;;;;;;5.13;4.03;;;;;;;;;;5027423;28;20014;-67
2021/10/03 03:07:34;;;;;;;4.50;3.47;;;;;;;;;;5025614;28;20100;-67
2021/10/03 03:10:00;;;;;;;3.60;3.00;;;;;;;;;;5026252;28;20041;-67
2021/10/03 03:12:26;;;;;;;5.78;3.30;;;;;;;;;;5026541;28;20025;-68
2021/10/03 03:14:52;;;;;;;3.97;3.22;;;;;;;;;;5026599;28;20429;-67
2021/10/03 03:17:21;;;;;;;4.47;2.92;;;;;;;;;;5027059;28;20021;-67
2021/10/03 03:19:47;;;;;;;3.13;2.83;;;;;;;;;;5028286;28;20496;-67
2021/10/03 03:22:13;;;;;;;3.20;2.80;;;;;;;;;;5026672;28;20026;-67
2021/10/03 03:24:39;;;;;;;2.90;2.60;;;;;;;;;;5027450;28;20041;-67
2021/10/03 03:27:06;;;;;;;5.07;3.10;;;;;;;;;;5026366;28;20024;-68
2021/10/03 03:29:32;;;;;;;4.20;3.50;;;;;;;;;;5029741;28;20075;-69
2021/10/03 03:31:59;;;;;;;4.85;3.30;;;;;;;;;;5040419;28;20025;-67
2021/10/03 03:34:25;;;;;;;4.03;3.20;;;;;;;;;;5035394;28;20037;-67
2021/10/03 03:36:51;;;;;;;4.00;3.08;;;;;;;;;;5046726;28;20032;-68
2021/10/03 03:39:18;;;;;;;3.95;3.25;;;;;;;;;;5032767;28;20179;-68
2021/10/03 03:41:44;;;;;;;4.30;3.05;;;;;;;;;;5026131;28;20036;-68
2021/10/03 03:44:11;;;;;;;3.75;2.70;;;;;;;;;;5025608;28;20029;-67
2021/10/03 03:46:37;;;;;;;2.97;2.30;;;;;;;;;;5028252;28;20030;-68
2021/10/03 03:49:03;;;;;;;3.10;2.53;;;;;;;;;;5024781;28;20432;-69
2021/10/03 03:51:30;;;;;;;5.30;2.83;;;;;;;;;;5025784;28;20024;-68
2021/10/03 03:53:57;;;;;;;3.30;2.83;;;;;;;;;;5028656;28;20029;-68
2021/10/03 03:56:23;;;;;;;2.50;2.30;;;;;;;;;;5028620;28;20104;-68
2021/10/03 03:58:49;;;;;;;2.40;2.17;;;;;;;;;;5029057;28;20108;-68
2021/10/03 04:01:16;;;;;;;2.97;2.25;;;;;;;;;;5028484;28;20118;-68
2021/10/03 04:03:43;;;;;;;2.92;2.47;;;;;;;;;;5027719;28;20037;-68
2021/10/03 04:06:09;;;;;;;2.78;2.28;;;;;;;;;;5028524;28;20014;-68
2021/10/03 04:08:35;;;;;;;2.25;2.05;;;;;;;;;;5028300;28;20029;-68
2021/10/03 04:11:01;;;;;;;3.15;2.25;;;;;;;;;;5028391;28;20036;-68
2021/10/03 04:13:27;;;;;;;3.08;2.47;;;;;;;;;;5027998;28;20072;-67
2021/10/03 04:15:54;;;;;;;3.03;2.65;;;;;;;;;;5028272;28;20036;-68
2021/10/03 04:18:20;;;;;;;3.80;2.70;;;;;;;;;;5028985;28;20029;-69
2021/10/03 04:20:46;;;;;;;3.08;2.55;;;;;;;;;;5028285;28;20031;-68
2021/10/03 04:23:12;;;;;;;2.70;2.40;;;;;;;;;;5045792;28;20036;-68
2021/10/03 04:25:38;;;;;;;3.13;2.65;;;;;;;;;;5063525;28;20049;-68
2021/10/03 04:28:04;;;;;;;3.55;2.50;;;;;;;;;;5028651;28;20049;-68
2021/10/03 04:30:30;;;;;;;3.90;2.50;;;;;;;;;;5027614;28;20021;-69
2021/10/03 04:32:57;;;;;;;5.07;2.90;;;;;;;;;;5028072;28;20037;-68
2021/10/03 04:35:23;;;;;;;3.15;2.20;;;;;;;;;;5027936;28;20293;-68
2021/10/03 04:37:49;;;;;;;3.58;2.55;;;;;;;;;;5028825;28;20034;-68
2021/10/03 04:40:16;;;;;;;2.60;2.20;;;;;;;;;;5027887;28;20028;-68
2021/10/03 04:42:44;;;;;;;2.30;2.03;;;;;;;;;;5027577;28;20033;-68
2021/10/03 04:45:11;;;;;;;4.18;2.30;;;;;;;;;;5028107;28;20049;-67
2021/10/03 04:47:37;;;;;;;2.88;2.25;;;;;;;;;;5027525;28;20026;-68
2021/10/03 04:50:04;;;;;;;3.45;2.20;;;;;;;;;;5027694;28;20033;-68
2021/10/03 04:52:30;;;;;;;4.03;2.35;;;;;;;;;;5027367;28;20493;-68
2021/10/03 04:54:56;;;;;;;2.30;1.98;;;;;;;;;;5027589;28;20508;-68
2021/10/03 04:57:22;;;;;;;2.70;2.08;;;;;;;;;;5028300;28;20064;-67
2021/10/03 04:59:48;;;;;;;2.80;2.10;;;;;;;;;;5028183;28;20021;-68
2021/10/03 05:02:14;;;;;;;2.75;2.10;;;;;;;;;;5026774;28;20033;-70
2021/10/03 05:04:40;;;;;;;2.30;1.95;;;;;;;;;;5026461;28;20025;-68
2021/10/03 05:07:06;;;;;;;2.88;2.10;;;;;;;;;;5027499;28;20112;-68
2021/10/03 05:09:33;;;;;;;2.20;1.80;;;;;;;;;;5026872;28;20148;-68
2021/10/03 05:11:59;;;;;;;2.42;1.90;;;;;;;;;;5027304;28;20029;-68
2021/10/03 05:14:25;;;;;;;1.60;1.45;;;;;;;;;;5027072;28;20101;-69
2021/10/03 05:16:51;;;;;;;2.05;1.63;;;;;;;;;;5027664;28;20544;-68
2021/10/03 05:19:17;;;;;;;2.22;1.90;;;;;;;;;;5027309;28;20083;-67
2021/10/03 05:21:43;;;;;;;1.42;1.33;;;;;;;;;;5026965;28;20033;-67
2021/10/03 05:24:10;;;;;;;2.17;1.63;;;;;;;;;;5026823;28;20035;-68
2021/10/03 05:26:36;;;;;;;2.38;1.63;;;;;;;;;;5029678;28;20021;-67
2021/10/03 05:29:03;;;;;;;1.60;1.50;;;;;;;;;;5037875;28;20021;-67
2021/10/03 05:31:29;;;;;;;1.75;1.60;;;;;;;;;;5027690;28;20026;-68
2021/10/03 05:33:57;;;;;;;1.40;1.30;;;;;;;;;;5045104;28;20036;-68
2021/10/03 05:36:24;;;;;;;1.45;1.35;;;;;;;;;;5047854;28;20272;-69
2021/10/03 05:38:51;;;;;;;2.10;1.42;;;;;;;;;;5048562;28;20051;-68
2021/10/03 05:41:17;;;;;;;1.13;1.02;;;;;;;;;;5048111;28;20484;-67
2021/10/03 05:43:43;;;;;;;1.35;1.00;;;;;;;;;;5040182;28;20571;-67
2021/10/03 05:46:09;;;;;;;1.13;0.93;;;;;;;;;;5046588;28;20028;-67
2021/10/03 05:48:35;;;;;;;1.10;1.00;;;;;;;;;;5046047;28;20025;-68
2021/10/03 05:51:02;;;;;;;1.85;1.20;;;;;;;;;;5043685;28;20401;-67
2021/10/03 05:53:28;;;;;;;0.85;0.85;;;;;;;;;;5048128;28;20025;-67
2021/10/03 05:55:55;;;;;;;1.10;1.00;;;;;;;;;;5047742;28;20025;-67
2021/10/03 05:58:21;;;;;;;1.10;1.00;;;;;;;;;;5046766;28;20096;-67
2021/10/03 06:00:47;;;;;;;0.93;0.90;;;;;;;;;;5045852;28;20044;-68
2021/10/03 06:03:14;;;;;;;1.02;0.93;;;;;;;;;;5045910;28;20242;-69
2021/10/03 06:05:41;;;;;;;0.88;0.88;;;;;;;;;;5045776;28;20029;-69
2021/10/03 06:08:07;;;;;;;1.38;0.85;;;;;;;;;;5046459;28;20052;-69
2021/10/03 06:10:33;;;;;;;1.20;1.10;;;;;;;;;;5026849;28;20072;-69
2021/10/03 06:12:59;;;;;;;1.83;1.08;;;;;;;;;;5026469;28;20025;-69
2021/10/03 06:15:25;;;;;;;2.22;1.50;;;;;;;;;;5026112;28;20159;-69
2021/10/03 06:17:52;;;;;;;2.25;1.30;;;;;;;;;;5037531;28;20037;-63
2021/10/03 06:20:18;;;;;;;1.60;1.17;;;;;;;;;;5040356;28;20110;-68
2021/10/03 06:22:45;;;;;;;2.45;1.20;;;;;;;;;;5033284;28;20370;-69
2021/10/03 06:25:12;;;;;;;1.83;1.67;;;;;;;;;;5039564;28;20052;-69
2021/10/03 06:27:38;;;;;;;2.17;1.70;;;;;;;;;;5063019;28;20411;-70
2021/10/03 06:30:06;;;;;;;1.70;1.60;;;;;;;;;;5048039;28;20031;-70
2021/10/03 06:32:32;;;;;;;4.38;1.60;;;;;;;;;;5032245;28;20028;-69
2021/10/03 06:34:58;;;;;;;4.20;2.17;;;;;;;;;;5028359;28;20022;-69
2021/10/03 06:37:24;;;;;;;1.98;1.67;;;;;;;;;;5042452;28;20553;-69
2021/10/03 06:39:50;;;;;;;2.08;1.88;;;;;;;;;;5035164;28;20028;-70
2021/10/03 06:42:16;;;;;;;1.77;1.67;;;;;;;;;;5045706;28;20499;-72
2021/10/03 06:44:42;;;;;;;1.98;1.60;;;;;;;;;;5040360;28;20088;-70
2021/10/03 06:47:10;;;;;;;1.67;1.52;;;;;;;;;;5027175;28;20032;-68
2021/10/03 06:49:37;;;;;;;2.50;1.92;;;;;;;;;;5026725;28;20492;-69
2021/10/03 06:52:03;;;;;;;1.77;1.60;;;;;;;;;;5026881;28;20072;-69
2021/10/03 06:54:29;;;;;;;2.75;1.55;;;;;;;;;;5026552;28;20402;-69
2021/10/03 06:56:55;;;;;;;1.55;1.40;;;;;;;;;;5033301;28;20484;-70
2021/10/03 06:59:21;;;;;;;1.98;1.63;;;;;;;;;;5047050;28;20555;-70
2021/10/03 07:01:47;;;;;;;1.95;1.48;;;;;;;;;;5045776;28;20120;-69
2021/10/03 07:04:13;;;;;;;1.73;1.60;;;;;;;;;;5046556;28;20032;-70
2021/10/03 07:06:40;;;;;;;2.83;1.75;;;;;;;;;;5042800;28;20013;-69
2021/10/03 07:09:06;;;;;;;2.00;1.70;;;;;;;;;;5032559;28;20448;-70
2021/10/03 07:11:32;;;;;;;1.98;1.45;;;;;;;;;;5044769;28;20031;-70
2021/10/03 07:13:59;;;;;;;1.90;1.70;;;;;;;;;;5044873;28;20037;-70
2021/10/03 07:16:25;;;;;;;2.22;1.88;;;;;;;;;;5039993;28;20029;-68
2021/10/03 07:18:51;;;;;;;2.13;1.42;;;;;;;;;;5031067;28;20115;-65
2021/10/03 07:21:17;;;;;;;1.50;1.40;;;;;;;;;;5037130;28;20106;-66
2021/10/03 07:23:43;;;;;;;1.52;1.27;;;;;;;;;;5045974;28;20117;-65
2021/10/03 07:26:11;;;;;;;1.95;1.70;;;;;;;;;;5028866;28;20442;-65
2021/10/03 07:28:37;;;;;;;2.45;1.80;;;;;;;;;;5026075;28;20100;-65
2021/10/03 07:31:03;;;;;;;2.47;1.40;;;;;;;;;;5025489;28;20079;-65
2021/10/03 07:33:29;;;;;;;1.90;1.65;;;;;;;;;;5025316;28;20026;-67
2021/10/03 07:35:55;;;;;;;3.20;2.25;;;;;;;;;;5026180;28;20113;-67
2021/10/03 07:38:22;;;;;;;2.72;1.60;;;;;;;;;;5044351;28;20108;-68
2021/10/03 07:40:48;;;;;;;2.13;1.70;;;;;;;;;;5046331;28;20468;-68
2021/10/03 07:43:14;;;;;;;2.00;1.80;;;;;;;;;;5045959;28;20044;-67
2021/10/03 07:45:41;;;;;;;1.90;1.70;;;;;;;;;;5046106;28;20100;-68
2021/10/03 07:48:08;;;;;;;1.55;1.45;;;;;;;;;;5046279;28;20195;-68
2021/10/03 07:50:34;;;;;;;1.90;1.45;;;;;;;;;;5045747;28;20025;-69
2021/10/03 07:53:00;;;;;;;1.55;1.30;;;;;;;;;;5041330;28;20108;-69
2021/10/03 07:58:30;;;;;;;1.60;1.30;;;;;;;;;;5041033;28;20036;-68
2021/10/03 08:00:56;;;;;;;1.77;1.50;;;;;;;;;;5037018;28;20037;-72
2021/10/03 08:03:22;;;;;;;4.13;2.20;;;;;;;;;;5036322;28;20079;-69
2021/10/03 08:05:48;;;;;;;1.73;1.60;;;;;;;;;;5043370;28;20026;-69
2021/10/03 08:08:14;;;;;;;1.67;1.52;;;;;;;;;;5063569;28;20438;-69
2021/10/03 08:10:41;;;;;;;3.15;1.67;;;;;;;;;;5041080;28;20366;-70
2021/10/03 08:13:08;;;;;;;2.03;1.70;;;;;;;;;;5028821;28;20038;-70
2021/10/03 08:15:35;;;;;;;1.73;1.60;;;;;;;;;;5046321;28;20032;-68
2021/10/03 08:18:02;;;;;;;1.90;1.70;;;;;;;;;;5048566;28;20500;-68
2021/10/03 08:20:29;;;;;;;2.50;2.10;;;;;;;;;;5041573;28;20032;-68
2021/10/03 08:22:56;;;;;;;2.55;2.00;;;;;;;;;;5040674;28;20021;-69
2021/10/03 08:25:22;;;;;;;2.40;2.00;;;;;;;;;;5038847;28;20096;-70
2021/10/03 08:27:48;;;;;;;2.22;1.80;;;;;;;;;;5038042;28;20104;-70
2021/10/03 08:30:14;;;;;;;2.42;1.88;;;;;;;;;;5039256;28;20033;-70
2021/10/03 08:32:40;;;;;;;2.58;1.92;;;;;;;;;;5048102;28;20025;-70
2021/10/03 08:35:07;;;;;;;2.47;2.03;;;;;;;;;;5068373;28;20028;-70
2021/10/03 08:37:33;;;;;;;2.45;2.08;;;;;;;;;;5068111;28;20039;-71
2021/10/03 08:40:00;;;;;;;3.63;2.15;;;;;;;;;;5070803;28;20484;-71
2021/10/03 08:42:27;;;;;;;3.10;2.22;;;;;;;;;;5070958;28;20445;-71
2021/10/03 08:44:53;;;;;;;2.92;2.08;;;;;;;;;;5071655;28;20036;-69
2021/10/03 08:47:19;;;;;;;3.33;2.15;;;;;;;;;;5053060;28;20531;-70
2021/10/03 08:49:45;;;;;;;4.20;2.15;;;;;;;;;;5049732;28;20025;-71
2021/10/03 08:52:11;;;;;;;2.97;2.35;;;;;;;;;;5049685;28;20024;-70
2021/10/03 08:54:39;;;;;;;2.55;2.25;;;;;;;;;;5050265;28;20494;-69
2021/10/03 08:57:06;;;;;;;3.35;2.55;;;;;;;;;;5030672;28;20052;-69
2021/10/03 08:59:32;;;;;;;2.42;2.22;;;;;;;;;;5028414;28;20500;-70
2021/10/03 09:02:03;;;;;;;2.45;2.05;;;;;;;;;;5029905;28;20041;-69
2021/10/03 09:04:31;;;;;;;2.58;2.22;;;;;;;;;;5029959;28;20514;-69
2021/10/03 09:07:05;;;;;;;2.90;2.10;;;;;;;;;;5030157;28;20029;-69
2021/10/03 09:09:49;;;;;;;2.65;1.90;;;;;;;;;;5045792;28;20039;-70
2021/10/03 09:12:29;;;;;;;4.65;3.00;;;;;;;;;;5042413;28;20017;-72
2021/10/03 09:14:56;;;;;;;3.92;2.60;;;;;;;;;;5028031;28;20509;-68
2021/10/03 09:17:22;;;;;;;5.07;3.25;;;;;;;;;;5045221;28;20026;-70
2021/10/03 09:20:15;;;;;;;3.60;2.85;;;;;;;;;;5029936;28;20060;-69
2021/10/03 09:22:53;;;;;;;4.03;3.17;;;;;;;;;;5035969;28;20055;-69
2021/10/03 09:25:34;;;;;;;4.45;3.38;;;;;;;;;;5029718;28;20022;-69
2021/10/03 09:28:03;;;;;;;5.22;3.08;;;;;;;;;;5044826;28;20025;-70
2021/10/03 09:30:30;;;;;;;4.50;2.83;;;;;;;;;;5029619;28;20503;-71
2021/10/03 09:32:58;;;;;;;3.70;2.88;;;;;;;;;;5030554;28;20088;-70
2021/10/03 09:35:28;;;;;;;5.30;3.00;;;;;;;;;;5029461;28;20029;-71
2021/10/03 09:37:54;;;;;;;3.67;2.83;;;;;;;;;;5029424;28;20029;-73
2021/10/03 09:40:20;;;;;;;3.60;2.50;;;;;;;;;;5045453;28;20033;-70
2021/10/03 09:42:59;;;;;;;4.20;3.13;;;;;;;;;;5038497;28;20021;-69
2021/10/03 09:45:25;;;;;;;4.75;3.30;;;;;;;;;;5027889;28;20025;-70
2021/10/03 09:48:01;;;;;;;3.42;2.47;;;;;;;;;;5029497;28;20021;-70
2021/10/03 09:50:27;;;;;;;3.65;2.78;;;;;;;;;;5028557;28;20026;-70
2021/10/03 09:52:53;;;;;;;3.42;2.60;;;;;;;;;;5030858;28;20047;-69
2021/10/03 09:55:19;;;;;;;3.00;2.40;;;;;;;;;;5048836;28;20029;-69
2021/10/03 09:57:46;;;;;;;3.13;2.67;;;;;;;;;;5031286;28;20269;-70
2021/10/03 10:00:13;;;;;;;2.90;2.55;;;;;;;;;;5026301;28;20025;-69
2021/10/03 10:02:40;;;;;;;2.88;2.40;;;;;;;;;;5026242;28;20026;-69
2021/10/03 10:05:06;;;;;;;2.88;2.50;;;;;;;;;;5027106;28;20040;-70
2021/10/03 10:07:36;;;;;;;3.95;2.15;;;;;;;;;;5026500;28;20488;-70
2021/10/03 10:10:03;;;;;;;3.00;2.70;;;;;;;;;;5026622;28;20025;-70
2021/10/03 10:12:34;;;;;;;3.40;2.47;;;;;;;;;;5026291;28;20034;-69
2021/10/03 10:15:01;;;;;;;2.95;2.08;;;;;;;;;;5030001;28;20029;-68
2021/10/03 10:17:30;;;;;;;4.07;2.13;;;;;;;;;;5026369;28;20038;-69
2021/10/03 10:19:57;;;;;;;3.05;2.25;;;;;;;;;;5026748;28;20021;-68
2021/10/03 10:22:24;;;;;;;2.60;2.00;;;;;;;;;;5026583;28;20042;-70
2021/10/03 10:24:52;;;;;;;2.25;2.05;;;;;;;;;;5027534;28;20021;-70
2021/10/03 10:27:21;;;;;;;2.83;2.20;;;;;;;;;;5026554;28;20033;-69
2021/10/03 10:29:51;;;;;;;3.03;2.00;;;;;;;;;;5051375;28;20392;-69
2021/10/03 10:32:17;;;;;;;3.25;2.30;;;;;;;;;;5047238;28;20025;-70
2021/10/03 10:35:02;;;;;;;2.00;1.70;;;;;;;;;;5046061;28;20435;-71
2021/10/03 10:37:47;;;;;;;2.00;1.80;;;;;;;;;;5045658;28;20081;-70
2021/10/03 10:42:53;;;;;;;2.25;1.80;;;;;;;;;;5046279;28;20036;-71
2021/10/03 10:45:28;;;;;;;1.55;1.45;;;;;;;;;;5045673;28;20167;-70
2021/10/03 10:48:03;;;;;;;2.38;1.60;;;;;;;;;;5026033;28;20253;-70
2021/10/03 10:50:29;;;;;;;1.70;1.48;;;;;;;;;;5026141;28;20021;-70
2021/10/03 10:53:16;;;;;;;1.35;1.20;;;;;;;;;;5026052;28;20040;-70
2021/10/03 10:55:43;;;;;;;1.30;1.20;;;;;;;;;;5025979;28;20037;-70
2021/10/03 10:58:10;;;;;;;1.73;1.40;;;;;;;;;;5026077;28;20101;-70
2021/10/03 11:00:54;;;;;;;1.48;1.33;;;;;;;;;;5040295;28;20029;-70
2021/10/03 11:03:21;;;;;;;2.50;1.70;;;;;;;;;;5041341;28;20116;-71
2021/10/03 11:05:47;;;;;;;1.40;1.20;;;;;;;;;;5046207;28;20029;-70
2021/10/03 11:08:14;;;;;;;2.45;1.95;;;;;;;;;;5045418;28;20563;-70
2021/10/03 11:11:13;;;;;;;1.75;1.55;;;;;;;;;;5045594;28;20025;-71
2021/10/03 11:13:43;;;;;;;3.05;1.90;;;;;;;;;;5043327;28;20416;-71
2021/10/03 11:16:27;;;;;;;1.85;1.67;;;;;;;;;;5033101;28;20024;-70
2021/10/03 11:18:56;;;;;;;2.97;1.77;;;;;;;;;;5026915;28;20542;-71
2021/10/03 11:21:25;;;;;;;2.10;1.90;;;;;;;;;;5025900;28;20049;-70
2021/10/03 11:23:53;;;;;;;1.70;1.55;;;;;;;;;;5026394;28;20025;-70
2021/10/03 11:26:19;;;;;;;2.33;1.88;;;;;;;;;;5026075;28;20026;-70
2021/10/03 11:28:57;;;;;;;2.00;1.75;;;;;;;;;;5025395;28;20083;-71
2021/10/03 11:31:47;;;;;;;2.38;1.60;;;;;;;;;;5025341;28;20120;-72
2021/10/03 11:34:28;;;;;;;2.17;1.70;;;;;;;;;;5025620;28;20048;-72
2021/10/03 11:36:54;;;;;;;1.90;1.70;;;;;;;;;;5025505;28;20116;-71
2021/10/03 11:39:38;;;;;;;1.92;1.70;;;;;;;;;;5026221;28;20160;-71
2021/10/03 11:42:08;;;;;;;3.60;2.00;;;;;;;;;;5040056;28;20112;-71
2021/10/03 11:44:35;;;;;;;2.45;2.10;;;;;;;;;;5045092;28;20080;-70
2021/10/03 11:47:05;;;;;;;2.47;2.20;;;;;;;;;;5041331;28;20025;-71
2021/10/03 11:49:32;;;;;;;4.93;2.83;;;;;;;;;;5059499;28;20032;-70
2021/10/03 11:51:58;;;;;;;3.58;2.10;;;;;;;;;;5028510;28;20025;-69
2021/10/03 11:54:31;;;;;;;3.08;2.10;;;;;;;;;;5027100;28;20033;-70
2021/10/03 11:56:57;;;;;;;2.80;2.17;;;;;;;;;;5037500;28;20025;-70
2021/10/03 11:59:23;;;;;;;3.33;2.63;;;;;;;;;;5041575;28;20412;-70
2021/10/03 12:01:49;;;;;;;4.38;2.70;;;;;;;;;;5026443;28;20044;-71
2021/10/03 12:04:26;;;;;;;2.58;2.28;;;;;;;;;;5026843;28;20036;-71
2021/10/03 12:06:52;;;;;;;6.13;3.03;;;;;;;;;;5033405;28;20032;-73
2021/10/03 12:09:21;;;;;;;3.88;2.60;;;;;;;;;;5044324;28;20404;-70
2021/10/03 12:11:49;;;;;;;4.03;3.30;;;;;;;;;;5041569;28;20442;-70
2021/10/03 12:14:16;;;;;;;4.65;3.22;;;;;;;;;;5030166;28;20485;-70
2021/10/03 12:16:56;;;;;;;4.03;2.80;;;;;;;;;;5047242;28;20037;-71
2021/10/03 12:19:23;;;;;;;4.07;3.00;;;;;;;;;;5029987;28;20029;-70
2021/10/03 12:21:50;;;;;;;3.75;2.63;;;;;;;;;;5047949;28;20025;-70
2021/10/03 12:24:16;;;;;;;3.58;2.50;;;;;;;;;;5064308;28;20063;-70
2021/10/03 12:26:48;;;;;;;2.90;2.00;;;;;;;;;;5046419;28;20870;-70
2021/10/03 12:29:18;;;;;;;4.03;2.33;;;;;;;;;;5037581;28;20033;-65
2021/10/03 12:31:52;;;;;;;2.33;2.13;;;;;;;;;;5027849;28;20508;-65
2021/10/03 12:34:18;;;;;;;;;;;;;;;;;;5039078;28;20087;-66
2021/10/03 12:36:56;;;;;;;3.00;2.53;;;;;;;;;;5030336;28;19909;-64
2021/10/03 12:39:22;;;;;;;2.80;2.13;;;;;;;;;;5035729;28;20026;-65
2021/10/03 12:41:53;;;;;;;3.00;2.25;;;;;;;;;;5028177;28;20456;-64
2021/10/03 12:44:31;;;;;;;2.88;2.58;;;;;;;;;;5057805;28;20032;-64
2021/10/03 12:46:58;;;;;;;3.15;2.10;;;;;;;;;;5037959;28;20033;-64
2021/10/03 12:49:24;;;;;;;3.85;2.92;;;;;;;;;;5029966;28;20056;-64
2021/10/03 12:51:50;;;;;;;5.43;3.10;;;;;;;;;;5045416;28;20037;-65
2021/10/03 12:54:16;;;;;;;8.27;3.13;;;;;;;;;;5034113;28;20408;-64
2021/10/03 12:56:42;;;;;;;3.45;2.60;;;;;;;;;;5037570;28;20424;-63
2021/10/03 12:59:08;;;;;;;3.45;2.13;;;;;;;;;;5034494;28;20029;-64
2021/10/03 13:01:35;;;;;;;2.58;2.20;;;;;;;;;;5045318;28;20064;-64
2021/10/03 13:04:01;;;;;;;2.92;2.42;;;;;;;;;;5038457;28;20543;-63
2021/10/03 13:06:27;;;;;;;2.65;2.03;;;;;;;;;;5038110;28;20057;-64
2021/10/03 13:08:53;;;;;;;2.75;2.22;;;;;;;;;;5045888;28;20348;-65
2021/10/03 13:11:19;;;;;;;3.63;1.92;;;;;;;;;;5030966;28;20251;-67
2021/10/03 13:13:47;;;;;;;2.08;1.88;;;;;;;;;;5031950;28;20037;-65
2021/10/03 13:16:13;;;;;;;6.38;2.00;;;;;;;;;;5045643;28;20742;-64
2021/10/03 13:18:41;;;;;;;2.60;1.75;;;;;;;;;;5049307;28;20017;-65
2021/10/03 13:21:07;;;;;;;2.38;1.85;;;;;;;;;;5035938;28;20034;-65
2021/10/03 13:23:34;;;;;;;2.25;2.03;;;;;;;;;;5029159;28;20040;-64
2021/10/03 13:26:00;;;;;;;2.20;1.90;;;;;;;;;;5034058;28;20060;-64
2021/10/03 13:28:28;;;;;;;1.83;1.70;;;;;;;;;;5030182;28;20032;-63
2021/10/03 13:30:54;;;;;;;1.88;1.65;;;;;;;;;;5033438;28;20581;-64
2021/10/03 13:33:21;;;;;;;1.40;1.30;;;;;;;;;;5034104;28;20087;-65
2021/10/03 13:35:48;;;;;;;1.40;1.30;;;;;;;;;;5033996;28;20029;-65
2021/10/03 13:38:14;;;;;;;1.05;1.00;;;;;;;;;;5032045;28;20028;-67
2021/10/03 13:40:41;;;;;;;2.08;1.20;;;;;;;;;;5033028;28;20029;-65
2021/10/03 13:43:07;;;;;;;1.85;1.10;;;;;;;;;;5028379;28;20423;-66
2021/10/03 13:45:34;;;;;;;1.08;1.00;;;;;;;;;;5044768;28;20075;-65
2021/10/03 13:48:01;;;;;;;1.52;1.25;;;;;;;;;;5033569;28;20092;-65
2021/10/03 13:50:27;;;;;;;1.02;0.93;;;;;;;;;;5048139;28;20051;-66
2021/10/03 13:52:53;;;;;;;0.98;0.90;;;;;;;;;;5032530;28;20029;-66
2021/10/03 13:55:20;;;;;;;1.40;0.90;;;;;;;;;;5034272;28;20029;-65
2021/10/03 13:57:46;;;;;;;1.05;0.95;;;;;;;;;;5038434;28;20028;-66
2021/10/03 14:00:12;;;;;;;1.00;0.90;;;;;;;;;;5042808;28;20025;-66
2021/10/03 14:02:39;;;;;;;1.27;1.00;;;;;;;;;;5041535;28;20099;-67
2021/10/03 14:05:05;;;;;;;1.23;1.08;;;;;;;;;;5045362;28;20717;-66
2021/10/03 14:07:31;;;;;;;1.10;1.00;;;;;;;;;;5034660;28;20097;-66
2021/10/03 14:09:57;;;;;;;0.85;0.82;;;;;;;;;;5036688;28;20122;-65
2021/10/03 14:12:25;;;;;;;0.98;0.98;;;;;;;;;;5046182;28;20512;-64
2021/10/03 14:14:51;;;;;;;1.13;1.02;;;;;;;;;;5039757;28;20033;-63
2021/10/03 14:17:17;;;;;;;1.20;1.10;;;;;;;;;;5035047;28;20143;-63
2021/10/03 14:19:43;;;;;;;1.30;1.20;;;;;;;;;;5028786;28;20053;-63
2021/10/03 14:22:09;;;;;;;1.98;1.13;;;;;;;;;;5028192;28;20033;-63
2021/10/03 14:24:35;;;;;;;3.85;1.58;;;;;;;;;;5038028;28;20039;-65
2021/10/03 14:27:02;;;;;;;2.15;1.60;;;;;;;;;;5027542;28;20021;-65
2021/10/03 14:29:28;;;;;;;1.33;1.23;;;;;;;;;;5040114;28;20033;-65
2021/10/03 14:31:54;;;;;;;1.83;1.50;;;;;;;;;;5045750;28;20033;-64
2021/10/03 14:34:21;;;;;;;2.72;1.80;;;;;;;;;;5040321;28;20036;-63
2021/10/03 14:36:47;;;;;;;1.50;1.40;;;;;;;;;;5045029;28;20038;-64
2021/10/03 14:39:14;;;;;;;2.65;2.20;;;;;;;;;;5029018;28;20324;-64
2021/10/03 14:41:41;;;;;;;2.75;2.30;;;;;;;;;;5041340;28;20554;-63
2021/10/03 14:44:07;;;;;;;2.97;2.60;;;;;;;;;;5032876;28;20025;-63
2021/10/03 14:46:34;;;;;;;5.03;3.03;;;;;;;;;;5036162;28;20036;-71
2021/10/03 14:49:00;;;;;;;4.38;2.90;;;;;;;;;;5034984;28;20164;-63
2021/10/03 14:51:26;;;;;;;3.45;2.50;;;;;;;;;;5035463;28;20032;-63